sensor_id;sensor_type;location;lat;lon;timestamp;pressure;altitude;pressure_sealevel;temperature;humidity
48267;BME280;34088;52.232;5.196;2024-02-23T00:00:09;98616.16;;;5.70;100.00
48267;BME280;34088;52.232;5.196;2024-02-23T00:02:35;98641.03;;;5.86;100.00
48267;BME280;34088;52.232;5.196;2024-02-23T00:05:01;98644.28;;;5.90;100.00
48267;BME280;34088;52.232;5.196;2024-02-23T00:07:26;98653.50;;;5.94;100.00
48267;BME280;34088;52.232;5.196;2024-02-23T00:09:51;98630.59;;;5.89;100.00
48267;BME280;34088;52.232;5.196;2024-02-23T00:12:17;98658.69;;;6.09;100.00
48267;BME280;34088;52.232;5.196;2024-02-23T00:14:42;98662.25;;;6.07;100.00
48267;BME280;34088;52.232;5.196;2024-02-23T00:17:07;98668.03;;;6.10;100.00
48267;BME280;34088;52.232;5.196;2024-02-23T00:33:21;98684.13;;;6.14;99.34
48267;BME280;34088;52.232;5.196;2024-02-23T00:35:46;98674.91;;;6.10;100.00
48267;BME280;34088;52.232;5.196;2024-02-23T00:38:11;98684.06;;;6.15;100.00
48267;BME280;34088;52.232;5.196;2024-02-23T00:40:37;98689.19;;;6.15;100.00
48267;BME280;34088;52.232;5.196;2024-02-23T00:43:03;98682.41;;;6.14;100.00
48267;BME280;34088;52.232;5.196;2024-02-23T00:45:28;98691.69;;;6.17;100.00
48267;BME280;34088;52.232;5.196;2024-02-23T00:47:54;98696.84;;;6.17;100.00
48267;BME280;34088;52.232;5.196;2024-02-23T00:50:19;98685.47;;;6.21;100.00
48267;BME280;34088;52.232;5.196;2024-02-23T00:52:44;98698.56;;;6.16;100.00
48267;BME280;34088;52.232;5.196;2024-02-23T00:55:10;98707.91;;;6.17;100.00
48267;BME280;34088;52.232;5.196;2024-02-23T00:57:36;98711.34;;;6.18;100.00
48267;BME280;34088;52.232;5.196;2024-02-23T01:00:02;98716.38;;;6.19;100.00
48267;BME280;34088;52.232;5.196;2024-02-23T01:02:30;98722.03;;;6.26;100.00
48267;BME280;34088;52.232;5.196;2024-02-23T01:04:56;98720.31;;;6.26;99.94
48267;BME280;34088;52.232;5.196;2024-02-23T01:07:23;98720.31;;;6.26;100.00
48267;BME280;34088;52.232;5.196;2024-02-23T01:09:49;98724.53;;;6.27;99.75
48267;BME280;34088;52.232;5.196;2024-02-23T01:12:14;98727.03;;;6.29;99.74
48267;BME280;34088;52.232;5.196;2024-02-23T01:14:39;98720.22;;;6.28;99.97
48267;BME280;34088;52.232;5.196;2024-02-23T01:17:05;98733.66;;;6.33;99.99
48267;BME280;34088;52.232;5.196;2024-02-23T01:19:30;98738.38;;;6.25;98.58
48267;BME280;34088;52.232;5.196;2024-02-23T01:21:55;98738.66;;;6.36;100.00
48267;BME280;34088;52.232;5.196;2024-02-23T01:24:25;98743.03;;;6.34;100.00
48267;BME280;34088;52.232;5.196;2024-02-23T01:26:53;98747.28;;;6.35;98.80
48267;BME280;34088;52.232;5.196;2024-02-23T01:29:18;98759.16;;;6.37;99.35
48267;BME280;34088;52.232;5.196;2024-02-23T01:31:43;98771.00;;;6.40;99.11
48267;BME280;34088;52.232;5.196;2024-02-23T01:34:09;98774.88;;;6.31;99.60
48267;BME280;34088;52.232;5.196;2024-02-23T01:36:34;98776.44;;;6.34;99.14
48267;BME280;34088;52.232;5.196;2024-02-23T01:39:01;98783.03;;;6.22;98.97
48267;BME280;34088;52.232;5.196;2024-02-23T01:41:26;98777.44;;;6.14;98.44
48267;BME280;34088;52.232;5.196;2024-02-23T01:43:51;98784.75;;;6.05;97.94
48267;BME280;34088;52.232;5.196;2024-02-23T01:46:17;98794.75;;;6.11;97.95
48267;BME280;34088;52.232;5.196;2024-02-23T01:48:45;98777.03;;;6.05;97.62
48267;BME280;34088;52.232;5.196;2024-02-23T01:51:11;98792.44;;;6.05;98.10
48267;BME280;34088;52.232;5.196;2024-02-23T01:53:37;98785.97;;;5.98;97.53
48267;BME280;34088;52.232;5.196;2024-02-23T01:56:04;98787.53;;;6.00;98.38
48267;BME280;34088;52.232;5.196;2024-02-23T01:58:30;98797.75;;;6.02;98.34
48267;BME280;34088;52.232;5.196;2024-02-23T02:00:56;98797.31;;;5.94;96.65
48267;BME280;34088;52.232;5.196;2024-02-23T02:03:21;98801.53;;;5.95;96.41
48267;BME280;34088;52.232;5.196;2024-02-23T02:05:47;98804.84;;;5.97;95.82
48267;BME280;34088;52.232;5.196;2024-02-23T02:08:15;98809.06;;;5.98;96.40
48267;BME280;34088;52.232;5.196;2024-02-23T02:10:40;98817.75;;;5.95;95.71
48267;BME280;34088;52.232;5.196;2024-02-23T02:13:07;98813.75;;;5.90;96.26
48267;BME280;34088;52.232;5.196;2024-02-23T02:15:33;98817.34;;;5.86;94.15
48267;BME280;34088;52.232;5.196;2024-02-23T02:17:58;98795.38;;;5.80;94.17
48267;BME280;34088;52.232;5.196;2024-02-23T02:20:25;98804.81;;;5.80;93.64
48267;BME280;34088;52.232;5.196;2024-02-23T02:22:51;98799.38;;;5.86;94.78
48267;BME280;34088;52.232;5.196;2024-02-23T02:25:16;98813.59;;;5.93;95.32
48267;BME280;34088;52.232;5.196;2024-02-23T02:27:42;98818.66;;;5.94;96.91
48267;BME280;34088;52.232;5.196;2024-02-23T02:30:13;98816.16;;;5.93;96.83
48267;BME280;34088;52.232;5.196;2024-02-23T02:32:38;98828.25;;;5.91;98.03
48267;BME280;34088;52.232;5.196;2024-02-23T02:35:05;98827.78;;;5.83;98.88
48267;BME280;34088;52.232;5.196;2024-02-23T02:37:30;98818.75;;;5.74;99.12
48267;BME280;34088;52.232;5.196;2024-02-23T02:39:56;98824.25;;;5.67;99.60
48267;BME280;34088;52.232;5.196;2024-02-23T02:42:21;98831.03;;;5.68;100.00
48267;BME280;34088;52.232;5.196;2024-02-23T02:44:47;98827.66;;;5.67;100.00
48267;BME280;34088;52.232;5.196;2024-02-23T02:47:12;98829.31;;;5.68;100.00
48267;BME280;34088;52.232;5.196;2024-02-23T02:49:41;98828.41;;;5.69;100.00
48267;BME280;34088;52.232;5.196;2024-02-23T02:52:07;98839.03;;;5.62;100.00
48267;BME280;34088;52.232;5.196;2024-02-23T02:54:33;98839.19;;;5.59;100.00
48267;BME280;34088;52.232;5.196;2024-02-23T02:56:59;98835.00;;;5.56;100.00
48267;BME280;34088;52.232;5.196;2024-02-23T02:59:24;98843.53;;;5.57;100.00
48267;BME280;34088;52.232;5.196;2024-02-23T03:01:49;98845.81;;;5.63;100.00
48267;BME280;34088;52.232;5.196;2024-02-23T03:04:15;98850.66;;;5.69;100.00
48267;BME280;34088;52.232;5.196;2024-02-23T03:06:40;98865.25;;;5.68;100.00
48267;BME280;34088;52.232;5.196;2024-02-23T03:09:06;98864.75;;;5.60;100.00
48267;BME280;34088;52.232;5.196;2024-02-23T03:11:32;98864.84;;;5.59;100.00
48267;BME280;34088;52.232;5.196;2024-02-23T03:13:57;98854.41;;;5.62;100.00
48267;BME280;34088;52.232;5.196;2024-02-23T03:16:23;98858.50;;;5.66;100.00
48267;BME280;34088;52.232;5.196;2024-02-23T03:18:51;98852.00;;;5.59;100.00
48267;BME280;34088;52.232;5.196;2024-02-23T03:21:16;98863.25;;;5.56;100.00
48267;BME280;34088;52.232;5.196;2024-02-23T03:23:41;98862.69;;;5.50;100.00
48267;BME280;34088;52.232;5.196;2024-02-23T03:26:07;98861.03;;;5.49;100.00
48267;BME280;34088;52.232;5.196;2024-02-23T03:28:33;98852.56;;;5.47;100.00
48267;BME280;34088;52.232;5.196;2024-02-23T03:31:00;98873.91;;;5.47;100.00
48267;BME280;34088;52.232;5.196;2024-02-23T03:33:25;98867.47;;;5.39;100.00
48267;BME280;34088;52.232;5.196;2024-02-23T03:35:50;98873.50;;;5.38;100.00
48267;BME280;34088;52.232;5.196;2024-02-23T03:38:16;98880.91;;;5.44;100.00
48267;BME280;34088;52.232;5.196;2024-02-23T03:40:41;98888.50;;;5.47;100.00
48267;BME280;34088;52.232;5.196;2024-02-23T03:43:07;98886.97;;;5.43;100.00
48267;BME280;34088;52.232;5.196;2024-02-23T03:45:32;98880.34;;;5.37;100.00
48267;BME280;34088;52.232;5.196;2024-02-23T03:47:59;98887.22;;;5.37;100.00
48267;BME280;34088;52.232;5.196;2024-02-23T03:50:24;98877.63;;;5.22;100.00
48267;BME280;34088;52.232;5.196;2024-02-23T03:52:50;98885.66;;;5.14;100.00
48267;BME280;34088;52.232;5.196;2024-02-23T03:55:15;98884.09;;;5.12;100.00
48267;BME280;34088;52.232;5.196;2024-02-23T03:57:41;98900.03;;;5.18;100.00
48267;BME280;34088;52.232;5.196;2024-02-23T04:00:06;98889.72;;;5.20;100.00
48267;BME280;34088;52.232;5.196;2024-02-23T04:02:34;98894.00;;;5.19;100.00
48267;BME280;34088;52.232;5.196;2024-02-23T04:04:59;98883.56;;;5.24;100.00
48267;BME280;34088;52.232;5.196;2024-02-23T04:07:24;98886.66;;;5.12;100.00
48267;BME280;34088;52.232;5.196;2024-02-23T04:09:50;98887.75;;;5.06;100.00
48267;BME280;34088;52.232;5.196;2024-02-23T04:12:23;98894.72;;;5.03;100.00
48267;BME280;34088;52.232;5.196;2024-02-23T04:14:49;98894.78;;;5.01;100.00
48267;BME280;34088;52.232;5.196;2024-02-23T04:17:14;98895.91;;;4.96;100.00
48267;BME280;34088;52.232;5.196;2024-02-23T04:19:41;98905.19;;;4.98;100.00
48267;BME280;34088;52.232;5.196;2024-02-23T04:22:07;98917.06;;;5.01;100.00
48267;BME280;34088;52.232;5.196;2024-02-23T04:24:38;98913.53;;;5.03;100.00
48267;BME280;34088;52.232;5.196;2024-02-23T04:27:07;98912.94;;;4.97;100.00
48267;BME280;34088;52.232;5.196;2024-02-23T04:29:33;98917.81;;;5.03;100.00
48267;BME280;34088;52.232;5.196;2024-02-23T04:32:01;98924.75;;;5.01;100.00
48267;BME280;34088;52.232;5.196;2024-02-23T04:34:27;98918.19;;;4.94;100.00
48267;BME280;34088;52.232;5.196;2024-02-23T04:36:53;98930.00;;;4.98;100.00
48267;BME280;34088;52.232;5.196;2024-02-23T04:39:18;98913.84;;;4.96;100.00
48267;BME280;34088;52.232;5.196;2024-02-23T04:41:43;98925.88;;;4.94;100.00
48267;BME280;34088;52.232;5.196;2024-02-23T04:44:09;98930.00;;;4.98;100.00
48267;BME280;34088;52.232;5.196;2024-02-23T04:46:34;98931.75;;;4.97;100.00
48267;BME280;34088;52.232;5.196;2024-02-23T04:49:00;98931.25;;;4.88;100.00
48267;BME280;34088;52.232;5.196;2024-02-23T04:51:25;98922.13;;;4.82;100.00
48267;BME280;34088;52.232;5.196;2024-02-23T04:53:51;98932.69;;;4.95;100.00
48267;BME280;34088;52.232;5.196;2024-02-23T04:56:16;98921.66;;;4.93;100.00
48267;BME280;34088;52.232;5.196;2024-02-23T04:58:43;98929.22;;;4.96;100.00
48267;BME280;34088;52.232;5.196;2024-02-23T05:01:08;98932.63;;;4.96;100.00
48267;BME280;34088;52.232;5.196;2024-02-23T05:03:34;98921.41;;;4.99;100.00
48267;BME280;34088;52.232;5.196;2024-02-23T05:05:59;98919.78;;;4.96;100.00
48267;BME280;34088;52.232;5.196;2024-02-23T05:08:25;98922.94;;;5.03;100.00
48267;BME280;34088;52.232;5.196;2024-02-23T05:10:52;98925.63;;;5.00;100.00
48267;BME280;34088;52.232;5.196;2024-02-23T05:13:17;98929.72;;;5.04;100.00
48267;BME280;34088;52.232;5.196;2024-02-23T05:15:43;98928.91;;;5.03;100.00
48267;BME280;34088;52.232;5.196;2024-02-23T05:18:08;98923.78;;;5.03;100.00
48267;BME280;34088;52.232;5.196;2024-02-23T05:20:34;98927.47;;;5.16;100.00
48267;BME280;34088;52.232;5.196;2024-02-23T05:22:59;98929.91;;;5.19;100.00
48267;BME280;34088;52.232;5.196;2024-02-23T05:25:24;98923.88;;;5.20;100.00
48267;BME280;34088;52.232;5.196;2024-02-23T05:27:51;98935.47;;;5.29;100.00
48267;BME280;34088;52.232;5.196;2024-02-23T05:30:16;98929.78;;;5.22;100.00
48267;BME280;34088;52.232;5.196;2024-02-23T05:32:41;98929.19;;;5.36;100.00
48267;BME280;34088;52.232;5.196;2024-02-23T05:35:07;98936.66;;;5.40;100.00
48267;BME280;34088;52.232;5.196;2024-02-23T05:37:32;98932.56;;;5.36;100.00
48267;BME280;34088;52.232;5.196;2024-02-23T05:39:57;98944.22;;;5.43;100.00
48267;BME280;34088;52.232;5.196;2024-02-23T05:42:25;98934.31;;;5.36;100.00
48267;BME280;34088;52.232;5.196;2024-02-23T05:44:50;98925.66;;;5.38;100.00
48267;BME280;34088;52.232;5.196;2024-02-23T05:47:16;98933.53;;;5.34;100.00
48267;BME280;34088;52.232;5.196;2024-02-23T05:49:41;98930.00;;;5.36;100.00
48267;BME280;34088;52.232;5.196;2024-02-23T05:52:06;98934.22;;;5.37;100.00
48267;BME280;34088;52.232;5.196;2024-02-23T05:54:32;98928.50;;;5.32;100.00
48267;BME280;34088;52.232;5.196;2024-02-23T05:56:57;98935.91;;;5.38;100.00
48267;BME280;34088;52.232;5.196;2024-02-23T05:59:22;98931.88;;;5.33;100.00
48267;BME280;34088;52.232;5.196;2024-02-23T06:01:48;98934.03;;;5.42;100.00
48267;BME280;34088;52.232;5.196;2024-02-23T06:04:13;98925.44;;;5.43;100.00
48267;BME280;34088;52.232;5.196;2024-02-23T06:06:42;98931.59;;;5.39;100.00
48267;BME280;34088;52.232;5.196;2024-02-23T06:09:08;98930.56;;;5.43;100.00
48267;BME280;34088;52.232;5.196;2024-02-23T06:11:34;98930.69;;;5.40;100.00
48267;BME280;34088;52.232;5.196;2024-02-23T06:14:00;98937.63;;;5.38;100.00
48267;BME280;34088;52.232;5.196;2024-02-23T06:16:25;98934.16;;;5.39;100.00
48267;BME280;34088;52.232;5.196;2024-02-23T06:18:50;98926.47;;;5.39;100.00
48267;BME280;34088;52.232;5.196;2024-02-23T06:21:16;98933.16;;;5.43;100.00
48267;BME280;34088;52.232;5.196;2024-02-23T06:23:43;98942.38;;;5.47;100.00
48267;BME280;34088;52.232;5.196;2024-02-23T06:26:08;98945.34;;;5.38;100.00
48267;BME280;34088;52.232;5.196;2024-02-23T06:28:34;98944.44;;;5.39;100.00
48267;BME280;34088;52.232;5.196;2024-02-23T06:30:59;98947.06;;;5.37;100.00
48267;BME280;34088;52.232;5.196;2024-02-23T06:33:24;98949.28;;;5.45;100.00
48267;BME280;34088;52.232;5.196;2024-02-23T06:35:50;98953.59;;;5.44;100.00
48267;BME280;34088;52.232;5.196;2024-02-23T06:38:17;98950.19;;;5.44;100.00
48267;BME280;34088;52.232;5.196;2024-02-23T06:40:43;98951.03;;;5.44;100.00
48267;BME280;34088;52.232;5.196;2024-02-23T06:43:08;98942.72;;;5.39;100.00
48267;BME280;34088;52.232;5.196;2024-02-23T06:45:33;98943.53;;;5.40;100.00
48267;BME280;34088;52.232;5.196;2024-02-23T06:47:58;98952.06;;;5.40;100.00
48267;BME280;34088;52.232;5.196;2024-02-23T06:50:24;98949.09;;;5.49;100.00
48267;BME280;34088;52.232;5.196;2024-02-23T06:52:49;98945.81;;;5.46;100.00
48267;BME280;34088;52.232;5.196;2024-02-23T06:55:15;98942.78;;;5.38;100.00
48267;BME280;34088;52.232;5.196;2024-02-23T06:57:42;98945.91;;;5.44;100.00
48267;BME280;34088;52.232;5.196;2024-02-23T07:00:08;98952.00;;;5.42;100.00
48267;BME280;34088;52.232;5.196;2024-02-23T07:02:34;98948.66;;;5.40;100.00
48267;BME280;34088;52.232;5.196;2024-02-23T07:05:02;98955.28;;;5.45;100.00
48267;BME280;34088;52.232;5.196;2024-02-23T07:07:30;98940.16;;;5.39;100.00
48267;BME280;34088;52.232;5.196;2024-02-23T07:09:56;98956.88;;;5.48;100.00
48267;BME280;34088;52.232;5.196;2024-02-23T07:12:22;98952.44;;;5.51;100.00
48267;BME280;34088;52.232;5.196;2024-02-23T07:14:48;98952.56;;;5.48;99.34
48267;BME280;34088;52.232;5.196;2024-02-23T07:17:16;98956.44;;;5.57;99.42
48267;BME280;34088;52.232;5.196;2024-02-23T07:19:42;98948.06;;;5.53;99.36
48267;BME280;34088;52.232;5.196;2024-02-23T07:22:07;98948.00;;;5.55;98.76
48267;BME280;34088;52.232;5.196;2024-02-23T07:24:32;98947.84;;;5.58;98.31
48267;BME280;34088;52.232;5.196;2024-02-23T07:26:58;98956.13;;;5.64;98.28
48267;BME280;34088;52.232;5.196;2024-02-23T07:29:23;98959.00;;;5.57;97.59
48267;BME280;34088;52.232;5.196;2024-02-23T07:31:49;98963.97;;;5.61;97.66
48267;BME280;34088;52.232;5.196;2024-02-23T07:34:14;98950.13;;;5.64;97.69
48267;BME280;34088;52.232;5.196;2024-02-23T07:36:40;98955.38;;;5.62;97.41
48267;BME280;34088;52.232;5.196;2024-02-23T07:39:05;98950.00;;;5.67;97.04
48267;BME280;34088;52.232;5.196;2024-02-23T07:41:31;98944.13;;;5.65;96.74
48267;BME280;34088;52.232;5.196;2024-02-23T07:43:56;98941.19;;;5.72;96.55
48267;BME280;34088;52.232;5.196;2024-02-23T07:46:22;98927.66;;;5.69;96.50
48267;BME280;34088;52.232;5.196;2024-02-23T07:48:48;98925.72;;;5.74;95.69
48267;BME280;34088;52.232;5.196;2024-02-23T07:51:13;98927.31;;;5.76;95.86
48267;BME280;34088;52.232;5.196;2024-02-23T07:53:39;98931.47;;;5.80;95.61
48267;BME280;34088;52.232;5.196;2024-02-23T07:56:07;98927.25;;;5.78;95.61
48267;BME280;34088;52.232;5.196;2024-02-23T07:58:32;98925.50;;;5.78;96.13
48267;BME280;34088;52.232;5.196;2024-02-23T08:00:57;98929.84;;;5.78;96.25
48267;BME280;34088;52.232;5.196;2024-02-23T08:03:23;98927.31;;;5.76;95.84
48267;BME280;34088;52.232;5.196;2024-02-23T08:05:48;98922.91;;;5.80;96.21
48267;BME280;34088;52.232;5.196;2024-02-23T08:08:13;98919.69;;;5.75;96.50
48267;BME280;34088;52.232;5.196;2024-02-23T08:10:39;98921.19;;;5.80;95.91
48267;BME280;34088;52.232;5.196;2024-02-23T08:13:04;98915.09;;;5.83;96.43
48267;BME280;34088;52.232;5.196;2024-02-23T08:15:29;98919.25;;;5.85;96.79
48267;BME280;34088;52.232;5.196;2024-02-23T08:17:55;98909.72;;;5.87;96.43
48267;BME280;34088;52.232;5.196;2024-02-23T08:20:20;98893.13;;;5.94;96.90
48267;BME280;34088;52.232;5.196;2024-02-23T08:22:46;98905.00;;;5.97;96.70
48267;BME280;34088;52.232;5.196;2024-02-23T08:25:11;98916.13;;;5.97;96.88
48267;BME280;34088;52.232;5.196;2024-02-23T08:27:37;98910.38;;;5.72;97.37
48267;BME280;34088;52.232;5.196;2024-02-23T08:30:02;98916.38;;;5.73;99.16
48267;BME280;34088;52.232;5.196;2024-02-23T08:32:28;98908.03;;;5.68;100.00
48267;BME280;34088;52.232;5.196;2024-02-23T08:34:53;98906.38;;;5.67;100.00
48267;BME280;34088;52.232;5.196;2024-02-23T08:37:25;98902.16;;;5.66;100.00
48267;BME280;34088;52.232;5.196;2024-02-23T08:39:50;98908.03;;;5.68;100.00
48267;BME280;34088;52.232;5.196;2024-02-23T08:42:15;98908.72;;;5.71;100.00
48267;BME280;34088;52.232;5.196;2024-02-23T08:44:41;98900.41;;;5.66;100.00
48267;BME280;34088;52.232;5.196;2024-02-23T08:47:06;98896.59;;;5.75;100.00
48267;BME280;34088;52.232;5.196;2024-02-23T08:49:32;98902.38;;;5.80;100.00
48267;BME280;34088;52.232;5.196;2024-02-23T08:51:57;98903.94;;;5.64;100.00
48267;BME280;34088;52.232;5.196;2024-02-23T08:54:23;98911.97;;;5.75;100.00
48267;BME280;34088;52.232;5.196;2024-02-23T08:56:48;98910.69;;;5.85;100.00
48267;BME280;34088;52.232;5.196;2024-02-23T08:59:14;98908.19;;;5.65;100.00
48267;BME280;34088;52.232;5.196;2024-02-23T09:01:39;98906.50;;;5.64;100.00
48267;BME280;34088;52.232;5.196;2024-02-23T09:04:04;98897.84;;;5.66;100.00
48267;BME280;34088;52.232;5.196;2024-02-23T09:06:30;98893.88;;;5.59;100.00
48267;BME280;34088;52.232;5.196;2024-02-23T09:08:55;98910.47;;;5.71;100.00
48267;BME280;34088;52.232;5.196;2024-02-23T09:11:22;98906.09;;;5.73;100.00
48267;BME280;34088;52.232;5.196;2024-02-23T09:13:47;98902.09;;;5.67;100.00
48267;BME280;34088;52.232;5.196;2024-02-23T09:16:12;98897.50;;;5.74;100.00
48267;BME280;34088;52.232;5.196;2024-02-23T09:18:39;98902.63;;;5.74;100.00
48267;BME280;34088;52.232;5.196;2024-02-23T09:21:04;98908.78;;;5.70;100.00
48267;BME280;34088;52.232;5.196;2024-02-23T09:23:30;98926.56;;;5.74;100.00
48267;BME280;34088;52.232;5.196;2024-02-23T09:25:55;98899.59;;;5.66;100.00
48267;BME280;34088;52.232;5.196;2024-02-23T09:28:20;98918.03;;;5.74;100.00
48267;BME280;34088;52.232;5.196;2024-02-23T09:30:46;98923.16;;;5.74;100.00
48267;BME280;34088;52.232;5.196;2024-02-23T09:33:11;98918.66;;;5.79;100.00
48267;BME280;34088;52.232;5.196;2024-02-23T09:35:37;98912.78;;;5.77;100.00
48267;BME280;34088;52.232;5.196;2024-02-23T09:38:02;98921.88;;;5.84;100.00
48267;BME280;34088;52.232;5.196;2024-02-23T09:40:28;98919.16;;;5.87;100.00
48267;BME280;34088;52.232;5.196;2024-02-23T09:42:57;98933.47;;;6.11;100.00
48267;BME280;34088;52.232;5.196;2024-02-23T09:45:27;98935.41;;;6.06;100.00
48267;BME280;34088;52.232;5.196;2024-02-23T09:47:53;98924.69;;;6.15;100.00
48267;BME280;34088;52.232;5.196;2024-02-23T09:50:25;98923.25;;;6.09;100.00
48267;BME280;34088;52.232;5.196;2024-02-23T09:52:50;98905.19;;;6.11;100.00
48267;BME280;34088;52.232;5.196;2024-02-23T09:55:17;98923.91;;;6.31;100.00
48267;BME280;34088;52.232;5.196;2024-02-23T09:57:44;98913.78;;;6.45;100.00
48267;BME280;34088;52.232;5.196;2024-02-23T10:00:10;98926.69;;;6.44;100.00
48267;BME280;34088;52.232;5.196;2024-02-23T10:02:36;98934.28;;;6.47;100.00
48267;BME280;34088;52.232;5.196;2024-02-23T10:05:01;98930.72;;;6.49;100.00
48267;BME280;34088;52.232;5.196;2024-02-23T10:07:27;98940.16;;;6.49;100.00
48267;BME280;34088;52.232;5.196;2024-02-23T10:09:53;98939.91;;;6.36;100.00
48267;BME280;34088;52.232;5.196;2024-02-23T10:12:20;98944.00;;;6.40;100.00
48267;BME280;34088;52.232;5.196;2024-02-23T10:14:46;98940.53;;;6.41;100.00
48267;BME280;34088;52.232;5.196;2024-02-23T10:17:11;98928.66;;;6.39;100.00
48267;BME280;34088;52.232;5.196;2024-02-23T10:19:36;98950.41;;;6.32;100.00
48267;BME280;34088;52.232;5.196;2024-02-23T10:22:03;98939.84;;;6.38;100.00
48267;BME280;34088;52.232;5.196;2024-02-23T10:24:28;98938.72;;;6.43;100.00
48267;BME280;34088;52.232;5.196;2024-02-23T10:26:53;98939.03;;;6.37;100.00
48267;BME280;34088;52.232;5.196;2024-02-23T10:29:20;98942.91;;;6.46;100.00
48267;BME280;34088;52.232;5.196;2024-02-23T10:31:47;98950.81;;;6.58;100.00
48267;BME280;34088;52.232;5.196;2024-02-23T10:34:18;98942.13;;;6.44;100.00
48267;BME280;34088;52.232;5.196;2024-02-23T10:36:44;98956.19;;;6.54;100.00
48267;BME280;34088;52.232;5.196;2024-02-23T10:39:15;98958.59;;;6.57;100.00
48267;BME280;34088;52.232;5.196;2024-02-23T10:41:46;98972.06;;;6.62;100.00
48267;BME280;34088;52.232;5.196;2024-02-23T10:44:14;98965.16;;;6.64;100.00
48267;BME280;34088;52.232;5.196;2024-02-23T10:46:41;98968.75;;;6.60;99.94
48267;BME280;34088;52.232;5.196;2024-02-23T10:49:07;98979.66;;;6.82;100.00
48267;BME280;34088;52.232;5.196;2024-02-23T10:51:33;98962.72;;;6.95;99.53
48267;BME280;34088;52.232;5.196;2024-02-23T10:53:59;98977.84;;;7.01;99.55
48267;BME280;34088;52.232;5.196;2024-02-23T10:56:25;98977.00;;;7.00;98.62
48267;BME280;34088;52.232;5.196;2024-02-23T10:58:51;98973.06;;;7.10;99.06
48267;BME280;34088;52.232;5.196;2024-02-23T11:01:16;98978.75;;;7.17;97.91
48267;BME280;34088;52.232;5.196;2024-02-23T11:03:44;98987.59;;;7.11;98.15
48267;BME280;34088;52.232;5.196;2024-02-23T11:06:15;98977.47;;;7.08;98.15
48267;BME280;34088;52.232;5.196;2024-02-23T11:08:46;98984.88;;;7.14;97.53
48267;BME280;34088;52.232;5.196;2024-02-23T11:11:12;98988.28;;;7.15;96.82
48267;BME280;34088;52.232;5.196;2024-02-23T11:13:39;98985.69;;;7.32;96.66
48267;BME280;34088;52.232;5.196;2024-02-23T11:16:06;98985.25;;;7.24;96.44
48267;BME280;34088;52.232;5.196;2024-02-23T11:18:38;98990.41;;;7.24;96.07
48267;BME280;34088;52.232;5.196;2024-02-23T11:21:04;98976.78;;;7.22;96.29
48267;BME280;34088;52.232;5.196;2024-02-23T11:26:05;98987.06;;;7.39;96.10
48267;BME280;34088;52.232;5.196;2024-02-23T11:28:42;98978.25;;;7.43;94.66
48267;BME280;34088;52.232;5.196;2024-02-23T11:31:14;98994.84;;;7.54;95.97
48267;BME280;34088;52.232;5.196;2024-02-23T11:33:39;98989.91;;;7.50;95.58
48267;BME280;34088;52.232;5.196;2024-02-23T11:36:08;99001.06;;;7.66;96.21
48267;BME280;34088;52.232;5.196;2024-02-23T11:38:34;98988.00;;;7.86;94.53
48267;BME280;34088;52.232;5.196;2024-02-23T11:41:00;98997.06;;;7.93;93.36
48267;BME280;34088;52.232;5.196;2024-02-23T11:43:25;98997.53;;;7.84;92.25
48267;BME280;34088;52.232;5.196;2024-02-23T11:45:51;98995.88;;;7.83;92.19
48267;BME280;34088;52.232;5.196;2024-02-23T11:48:16;99000.63;;;7.75;92.92
48267;BME280;34088;52.232;5.196;2024-02-23T11:50:42;99007.41;;;7.76;93.07
48267;BME280;34088;52.232;5.196;2024-02-23T11:53:08;99011.66;;;7.77;91.90
48267;BME280;34088;52.232;5.196;2024-02-23T11:55:33;99014.88;;;7.65;91.27
48267;BME280;34088;52.232;5.196;2024-02-23T11:57:59;99022.03;;;7.75;92.93
48267;BME280;34088;52.232;5.196;2024-02-23T12:00:24;99022.69;;;7.79;92.26
48267;BME280;34088;52.232;5.196;2024-02-23T12:02:49;99017.22;;;7.85;93.85
48267;BME280;34088;52.232;5.196;2024-02-23T12:05:16;99016.88;;;7.75;92.03
48267;BME280;34088;52.232;5.196;2024-02-23T12:07:41;99024.22;;;7.83;91.86
48267;BME280;34088;52.232;5.196;2024-02-23T12:10:07;99017.16;;;8.02;92.40
48267;BME280;34088;52.232;5.196;2024-02-23T12:12:33;99012.13;;;8.16;91.44
48267;BME280;34088;52.232;5.196;2024-02-23T12:14:59;99021.22;;;8.23;91.64
48267;BME280;34088;52.232;5.196;2024-02-23T12:17:25;99017.63;;;8.10;90.56
48267;BME280;34088;52.232;5.196;2024-02-23T12:20:01;99014.53;;;8.19;90.35
48267;BME280;34088;52.232;5.196;2024-02-23T12:22:26;99007.31;;;8.10;90.49
48267;BME280;34088;52.232;5.196;2024-02-23T12:24:52;99016.38;;;8.17;89.40
48267;BME280;34088;52.232;5.196;2024-02-23T12:27:17;99030.25;;;8.14;90.42
48267;BME280;34088;52.232;5.196;2024-02-23T12:29:53;99030.47;;;8.27;90.23
48267;BME280;34088;52.232;5.196;2024-02-23T12:32:22;99028.03;;;8.24;89.44
48267;BME280;34088;52.232;5.196;2024-02-23T12:34:48;99019.94;;;8.14;89.83
48267;BME280;34088;52.232;5.196;2024-02-23T12:37:17;99048.41;;;8.28;89.45
48267;BME280;34088;52.232;5.196;2024-02-23T12:39:46;99047.41;;;8.46;90.07
48267;BME280;34088;52.232;5.196;2024-02-23T12:42:11;99029.97;;;8.67;89.97
48267;BME280;34088;52.232;5.196;2024-02-23T12:44:36;99029.19;;;8.65;88.73
48267;BME280;34088;52.232;5.196;2024-02-23T12:47:02;99035.13;;;8.67;87.75
48267;BME280;34088;52.232;5.196;2024-02-23T12:49:27;99037.03;;;8.79;87.28
48267;BME280;34088;52.232;5.196;2024-02-23T12:51:53;99038.25;;;8.72;87.46
48267;BME280;34088;52.232;5.196;2024-02-23T12:54:18;99047.09;;;8.68;85.48
48267;BME280;34088;52.232;5.196;2024-02-23T12:56:43;99052.16;;;8.54;86.62
48267;BME280;34088;52.232;5.196;2024-02-23T12:59:09;99054.41;;;8.60;86.40
48267;BME280;34088;52.232;5.196;2024-02-23T13:01:35;99046.50;;;8.63;86.94
48267;BME280;34088;52.232;5.196;2024-02-23T13:04:03;99049.75;;;8.66;87.07
48267;BME280;34088;52.232;5.196;2024-02-23T13:06:37;99057.22;;;8.71;87.00
48267;BME280;34088;52.232;5.196;2024-02-23T13:09:03;99063.41;;;8.53;84.56
48267;BME280;34088;52.232;5.196;2024-02-23T13:11:29;99062.25;;;8.58;86.40
48267;BME280;34088;52.232;5.196;2024-02-23T13:13:54;99056.19;;;8.44;85.83